Sentell, Louisiana
Current Conditions -  °F | °C
As of 3:53 AM on Monday 22 Dec 2014 (Local Time) from KDTN Reporting Station
Overcast Overcast  
Wind Chill: 44°   Ceiling: 500
Heat Index: 49°   Visibility: 7mi
Dew Point: 46°   Wind: 12mph
Humidity: 90%   Direction: 160°SSE
Pressure: 29.77"   Gusts: NA
Location:  32.5955°N, 93.8642°W
Report Text: KDTN 220953Z AUTO 16010KT 7SM OVC005 09/08 A2977 RMK AO2 SLP079 T00940078 $
Loading
Personal Weather Stations






























Interactive Weather Map New forecast layout! Learn more

10-Day Weather Forecast

Advertisements
Track Severe Weather on mobile